Time;durP1;ratioP1;P1;durP2;ratioP2;P2;SDS_P1;SDS_P2;PMS_P1;PMS_P2;Temp;Humidity;BMP_temperature;BMP_pressure;BME280_temperature;BME280_humidity;BME280_pressure;Samples;Min_cycle;Max_cycle;Signal;HPM_P1;HPM_P2
2022/12/18 00:01:16;;;;;;;55.03;17.23;;;-1.90;99.90;;;;;;5018170;28;20069;-69
2022/12/18 00:03:42;;;;;;;52.65;15.05;;;-1.90;99.90;;;;;;5017137;28;20037;-66
2022/12/18 00:06:08;;;;;;;46.90;14.80;;;-1.90;99.90;;;;;;5018001;28;20438;-69
2022/12/18 00:08:34;;;;;;;52.90;16.52;;;-1.90;99.90;;;;;;5019156;28;20069;-70
2022/12/18 00:11:05;;;;;;;44.70;14.75;;;-2.00;99.90;;;;;;5019717;28;20037;-70
2022/12/18 00:13:30;;;;;;;41.03;13.77;;;-1.90;99.90;;;;;;5015254;28;20041;-70
2022/12/18 00:16:02;;;;;;;45.30;14.82;;;-2.00;99.90;;;;;;5002506;28;20041;-70
2022/12/18 00:18:27;;;;;;;49.97;15.23;;;-2.00;99.90;;;;;;4996011;28;20030;-69
2022/12/18 00:20:53;;;;;;;47.55;15.70;;;-2.00;99.90;;;;;;5019008;28;20041;-69
2022/12/18 00:23:19;;;;;;;45.92;15.75;;;-1.90;99.90;;;;;;5017385;28;20053;-69
2022/12/18 00:25:44;;;;;;;47.45;13.88;;;-2.00;99.90;;;;;;5009951;28;20056;-70
2022/12/18 00:28:10;;;;;;;50.38;15.00;;;-2.00;99.90;;;;;;5018260;28;20103;-70
2022/12/18 00:30:35;;;;;;;40.22;14.18;;;-2.00;99.90;;;;;;5017058;28;20025;-70
2022/12/18 00:33:01;;;;;;;45.78;15.55;;;-2.00;99.90;;;;;;5016705;28;20073;-69
2022/12/18 00:35:26;;;;;;;36.50;12.75;;;-2.00;99.90;;;;;;5002253;28;20048;-69
2022/12/18 00:37:52;;;;;;;44.03;13.27;;;-2.00;99.90;;;;;;5015641;28;20038;-69
2022/12/18 00:40:17;;;;;;;42.10;13.60;;;-2.10;99.90;;;;;;5019560;28;20113;-70
2022/12/18 00:42:55;;;;;;;42.42;14.40;;;-2.10;99.90;;;;;;5014824;28;20605;-67
2022/12/18 00:45:25;;;;;;;45.00;12.95;;;-2.20;99.90;;;;;;5016217;28;20106;-69
2022/12/18 00:47:50;;;;;;;46.65;16.27;;;-2.20;99.90;;;;;;5000948;28;20489;-70
2022/12/18 00:50:16;;;;;;;46.47;14.73;;;-2.20;99.90;;;;;;5017094;28;20104;-69
2022/12/18 00:52:42;;;;;;;47.72;15.50;;;-2.20;99.90;;;;;;5017536;28;20026;-69
2022/12/18 00:55:09;;;;;;;46.50;15.15;;;-2.20;99.90;;;;;;5017669;28;20511;-70
2022/12/18 00:57:34;;;;;;;45.03;15.82;;;-2.20;99.90;;;;;;5016546;28;20041;-70
2022/12/18 01:00:00;;;;;;;47.53;15.90;;;-2.20;99.90;;;;;;5020927;28;20038;-69
2022/12/18 01:02:26;;;;;;;45.03;14.70;;;-2.20;99.90;;;;;;5022758;28;20468;-69
2022/12/18 01:04:51;;;;;;;42.40;12.80;;;-2.20;99.90;;;;;;5019090;28;20041;-69
2022/12/18 01:07:17;;;;;;;43.80;15.05;;;-2.20;99.90;;;;;;5022727;28;20026;-70
2022/12/18 01:09:43;;;;;;;46.97;15.95;;;-2.30;99.90;;;;;;5001739;28;20056;-69
2022/12/18 01:12:08;;;;;;;47.25;15.55;;;-2.30;99.90;;;;;;5021554;28;20383;-69
2022/12/18 01:14:34;;;;;;;41.55;14.45;;;-2.30;99.90;;;;;;5020273;28;20029;-70
2022/12/18 01:17:02;;;;;;;40.13;13.25;;;-2.30;99.90;;;;;;5020212;28;20125;-67
2022/12/18 01:19:28;;;;;;;43.03;15.00;;;-2.30;99.90;;;;;;5022265;28;20402;-70
2022/12/18 01:21:53;;;;;;;36.85;12.27;;;-2.40;99.90;;;;;;4999011;28;20108;-70
2022/12/18 01:24:19;;;;;;;43.50;13.52;;;-2.40;99.90;;;;;;5014878;28;20141;-70
2022/12/18 01:26:45;;;;;;;46.50;14.18;;;-2.40;99.90;;;;;;5016836;28;20548;-69
2022/12/18 01:29:10;;;;;;;44.95;15.65;;;-2.40;99.90;;;;;;5022055;28;20029;-69
2022/12/18 01:31:36;;;;;;;40.42;13.32;;;-2.40;99.90;;;;;;5019402;28;20075;-69
2022/12/18 01:34:04;;;;;;;38.47;14.27;;;-2.40;99.90;;;;;;5023351;28;20501;-69
2022/12/18 01:36:35;;;;;;;36.00;14.48;;;-2.50;99.90;;;;;;5020281;28;20846;-70
2022/12/18 01:39:12;;;;;;;42.35;14.70;;;-2.50;99.90;;;;;;5020062;28;20033;-70
2022/12/18 01:45:10;;;;;;;42.47;13.55;;;-2.50;99.90;;;;;;5015229;28;20560;-70
2022/12/18 01:47:46;;;;;;;37.47;12.52;;;-2.50;99.90;;;;;;4996095;28;20413;-70
2022/12/18 01:50:27;;;;;;;42.58;14.65;;;-2.50;99.90;;;;;;5019426;28;20130;-69
2022/12/18 01:53:01;;;;;;;48.78;15.07;;;-2.50;99.90;;;;;;5017591;28;20022;-70
2022/12/18 01:55:31;;;;;;;45.75;13.70;;;-2.50;99.90;;;;;;5021418;28;20040;-70
2022/12/18 01:58:00;;;;;;;43.67;13.98;;;-2.50;99.90;;;;;;5018289;28;20565;-70
2022/12/18 02:00:26;;;;;;;39.90;13.35;;;-2.60;99.90;;;;;;5003686;28;20112;-70
2022/12/18 02:02:53;;;;;;;46.05;15.35;;;-2.60;99.90;;;;;;5017346;28;20022;-69
2022/12/18 02:05:57;;;;;;;42.60;13.20;;;-2.60;99.90;;;;;;5021743;28;20049;-70
2022/12/18 02:08:32;;;;;;;39.90;14.15;;;-2.70;99.90;;;;;;4977962;28;20042;-70
2022/12/18 02:11:04;;;;;;;38.90;11.60;;;-2.70;99.90;;;;;;5019957;28;20516;-70
2022/12/18 02:13:46;;;;;;;48.00;13.63;;;-2.70;99.90;;;;;;5019886;28;20129;-70
2022/12/18 02:16:21;;;;;;;43.13;13.68;;;-2.70;99.90;;;;;;5018636;28;20038;-70
2022/12/18 02:18:51;;;;;;;41.70;13.02;;;-2.70;99.90;;;;;;5013245;28;20050;-70
2022/12/18 02:21:36;;;;;;;41.20;14.90;;;-2.70;99.90;;;;;;5014581;28;20053;-68
2022/12/18 02:24:13;;;;;;;41.47;14.20;;;-2.70;99.90;;;;;;5016339;28;20099;-69
2022/12/18 02:26:50;;;;;;;39.78;13.20;;;-2.70;99.90;;;;;;5015998;28;20126;-70
2022/12/18 02:29:48;;;;;;;37.55;12.55;;;-2.80;99.90;;;;;;4996866;28;20030;-69
2022/12/18 02:32:24;;;;;;;38.90;14.55;;;-2.70;99.90;;;;;;5019728;28;20038;-70
2022/12/18 02:34:51;;;;;;;34.85;12.98;;;-2.70;99.90;;;;;;5013578;28;20525;-70
2022/12/18 02:37:19;;;;;;;42.28;14.05;;;-2.80;99.90;;;;;;5004023;28;20399;-68
2022/12/18 02:39:47;;;;;;;42.90;13.18;;;-2.80;99.90;;;;;;5008719;28;20030;-70
2022/12/18 02:42:13;;;;;;;44.83;14.77;;;-2.80;99.90;;;;;;5018171;28;20073;-70
2022/12/18 02:44:47;;;;;;;45.92;14.75;;;-2.80;99.90;;;;;;5018952;28;20038;-70
2022/12/18 02:47:16;;;;;;;37.35;13.00;;;-2.80;99.90;;;;;;5000237;28;20022;-70
2022/12/18 02:49:59;;;;;;;56.40;15.48;;;-2.80;99.90;;;;;;5019855;28;20108;-70
2022/12/18 02:52:31;;;;;;;38.17;12.85;;;-2.80;99.90;;;;;;5016497;28;20038;-70
2022/12/18 02:55:01;;;;;;;43.88;14.18;;;-2.70;99.90;;;;;;5001272;28;20473;-70
2022/12/18 02:58:05;;;;;;;49.07;14.10;;;-2.70;99.90;;;;;;5021197;28;20025;-70
2022/12/18 03:00:40;;;;;;;51.72;15.68;;;-2.80;99.90;;;;;;4920461;29;20081;-71
2022/12/18 03:03:35;;;;;;;45.10;14.32;;;-2.80;99.90;;;;;;5001890;28;20029;-70
2022/12/18 03:06:09;;;;;;;40.03;13.00;;;-2.80;99.90;;;;;;5016979;28;20129;-72
2022/12/18 03:08:40;;;;;;;36.65;13.45;;;-2.90;99.90;;;;;;5017313;28;20136;-70
2022/12/18 03:11:09;;;;;;;46.78;14.73;;;-2.90;99.90;;;;;;5017039;28;20034;-70
2022/12/18 03:13:52;;;;;;;44.47;13.43;;;-2.90;99.90;;;;;;5019157;28;20081;-70
2022/12/18 03:16:30;;;;;;;43.45;15.93;;;-3.00;99.90;;;;;;5018564;28;20037;-70
2022/12/18 03:19:06;;;;;;;41.50;13.10;;;-3.00;99.90;;;;;;5017668;28;20029;-71
2022/12/18 03:21:41;;;;;;;48.03;14.18;;;-3.00;99.90;;;;;;5016983;28;20037;-71
2022/12/18 03:24:09;;;;;;;52.63;15.10;;;-3.00;99.90;;;;;;5016156;28;20071;-70
2022/12/18 03:26:39;;;;;;;45.55;15.45;;;-3.00;99.90;;;;;;5015897;28;20032;-70
2022/12/18 03:29:14;;;;;;;48.92;15.90;;;-3.10;99.90;;;;;;5017435;28;20404;-70
2022/12/18 03:31:45;;;;;;;46.13;15.30;;;-3.10;99.90;;;;;;5019592;28;20028;-70
2022/12/18 03:34:19;;;;;;;34.85;13.32;;;-3.10;99.90;;;;;;5020337;28;20036;-70
2022/12/18 03:36:45;;;;;;;39.28;13.95;;;-3.10;99.90;;;;;;5017220;28;20049;-71
2022/12/18 03:39:11;;;;;;;32.10;11.88;;;-3.10;99.90;;;;;;5025656;28;20588;-70
2022/12/18 03:41:51;;;;;;;37.00;12.18;;;-3.10;99.90;;;;;;5029875;28;20120;-69
2022/12/18 03:44:40;;;;;;;41.47;14.23;;;-3.10;99.90;;;;;;5017656;28;20046;-70
2022/12/18 03:47:23;;;;;;;37.70;13.77;;;-3.10;99.90;;;;;;5029873;28;20080;-71
2022/12/18 03:49:59;;;;;;;39.15;11.55;;;-3.10;99.90;;;;;;5001668;28;20446;-70
2022/12/18 03:52:34;;;;;;;41.15;14.20;;;-3.10;99.90;;;;;;5025227;28;20037;-70
2022/12/18 03:55:03;;;;;;;35.70;12.80;;;-3.20;99.90;;;;;;5027020;28;20022;-69
2022/12/18 03:57:31;;;;;;;33.10;12.38;;;-3.10;99.90;;;;;;5026202;28;20026;-70
2022/12/18 04:00:11;;;;;;;36.10;12.32;;;-3.10;99.90;;;;;;5024117;28;20030;-69
2022/12/18 04:02:43;;;;;;;32.50;12.00;;;-3.20;99.90;;;;;;5023139;28;20030;-69
2022/12/18 04:05:10;;;;;;;37.35;13.85;;;-3.20;99.90;;;;;;5024314;28;20069;-69
2022/12/18 04:07:38;;;;;;;31.77;11.10;;;-3.20;99.90;;;;;;5014678;28;20497;-68
2022/12/18 04:10:07;;;;;;;37.58;12.38;;;-3.20;99.90;;;;;;5024671;28;20040;-69
2022/12/18 04:12:32;;;;;;;30.80;11.10;;;-3.20;99.90;;;;;;5023345;28;20041;-70
2022/12/18 04:14:58;;;;;;;37.53;13.85;;;-3.30;99.90;;;;;;5020205;28;20042;-71
2022/12/18 04:17:24;;;;;;;35.00;12.27;;;-3.30;99.90;;;;;;5019449;28;20392;-70
2022/12/18 04:19:50;;;;;;;33.70;11.68;;;-3.20;99.90;;;;;;5023593;28;20045;-68
2022/12/18 04:22:15;;;;;;;36.05;11.82;;;-3.20;99.90;;;;;;5018235;28;20040;-70
2022/12/18 04:24:41;;;;;;;30.20;12.13;;;-3.20;99.90;;;;;;5034215;28;20120;-70
2022/12/18 04:27:07;;;;;;;35.05;11.35;;;-3.30;99.90;;;;;;5026483;28;20049;-69
2022/12/18 04:29:32;;;;;;;35.08;12.13;;;-3.30;99.90;;;;;;5026313;28;20026;-70
2022/12/18 04:31:58;;;;;;;30.80;12.20;;;-3.30;99.90;;;;;;5028301;28;20375;-69
2022/12/18 04:34:23;;;;;;;30.67;11.18;;;-3.30;99.90;;;;;;5029387;28;20058;-70
2022/12/18 04:36:49;;;;;;;30.63;11.52;;;-3.40;99.90;;;;;;5031153;28;20088;-69
2022/12/18 04:39:15;;;;;;;47.05;14.25;;;-3.30;99.90;;;;;;5028832;28;20038;-70
2022/12/18 04:41:41;;;;;;;31.38;11.25;;;-3.30;99.90;;;;;;5025278;28;20041;-70
2022/12/18 04:44:06;;;;;;;42.42;13.10;;;-3.30;99.90;;;;;;5029052;28;20132;-69
2022/12/18 04:46:32;;;;;;;29.35;12.20;;;-3.40;99.90;;;;;;5020379;28;20129;-69
2022/12/18 04:48:57;;;;;;;30.63;11.65;;;-3.40;99.90;;;;;;5021602;28;20117;-69
2022/12/18 04:51:23;;;;;;;32.28;11.68;;;-3.40;99.90;;;;;;5023587;28;20038;-70
2022/12/18 04:53:49;;;;;;;33.25;13.40;;;-3.40;99.90;;;;;;5017743;28;20034;-69
2022/12/18 04:56:15;;;;;;;34.60;12.60;;;-3.40;99.90;;;;;;5022593;28;20095;-69
2022/12/18 04:58:43;;;;;;;31.33;13.63;;;-3.50;99.90;;;;;;5018833;28;20033;-69
2022/12/18 05:01:10;;;;;;;34.55;13.60;;;-3.40;99.90;;;;;;5016215;28;20033;-69
2022/12/18 05:03:37;;;;;;;28.90;12.50;;;-3.50;99.90;;;;;;5014404;28;20666;-68
2022/12/18 05:06:03;;;;;;;31.77;13.52;;;-3.50;99.90;;;;;;5022769;28;20041;-69
2022/12/18 05:08:29;;;;;;;35.33;13.20;;;-3.50;99.90;;;;;;5020429;28;20054;-69
2022/12/18 05:11:08;;;;;;;34.38;13.40;;;-3.50;99.90;;;;;;5020468;28;20033;-69
2022/12/18 05:13:35;;;;;;;36.22;13.43;;;-3.50;99.90;;;;;;5018348;28;20045;-69
2022/12/18 05:16:01;;;;;;;29.50;11.02;;;-3.60;99.90;;;;;;5018256;28;20125;-69
2022/12/18 05:18:27;;;;;;;32.33;12.02;;;-3.60;99.90;;;;;;5023266;28;20481;-69
2022/12/18 05:20:53;;;;;;;28.48;11.35;;;-3.60;99.90;;;;;;5020100;28;20096;-69
2022/12/18 05:23:21;;;;;;;31.90;11.80;;;-3.60;99.90;;;;;;5018093;28;20044;-69
2022/12/18 05:25:55;;;;;;;32.67;11.80;;;-3.60;99.90;;;;;;5016795;28;20068;-70
2022/12/18 05:28:22;;;;;;;30.15;11.77;;;-3.60;99.90;;;;;;5020895;28;20406;-69
2022/12/18 05:30:52;;;;;;;27.55;10.63;;;-3.60;99.90;;;;;;5002025;28;20104;-69
2022/12/18 05:33:22;;;;;;;29.73;11.90;;;-3.70;99.90;;;;;;5021498;28;20033;-70
2022/12/18 05:35:53;;;;;;;28.27;11.05;;;-3.60;99.90;;;;;;5019315;28;20100;-70
2022/12/18 05:38:20;;;;;;;26.27;10.10;;;-3.60;99.90;;;;;;5020539;28;20065;-70
2022/12/18 05:40:47;;;;;;;30.17;10.57;;;-3.60;99.90;;;;;;5019025;28;20042;-70
2022/12/18 05:43:13;;;;;;;26.30;9.88;;;-3.70;99.90;;;;;;5021203;28;20030;-69
2022/12/18 05:45:39;;;;;;;25.08;10.10;;;-3.70;99.90;;;;;;5017640;28;20096;-70
2022/12/18 05:48:06;;;;;;;23.40;8.88;;;-3.70;99.90;;;;;;5022114;28;20124;-68
2022/12/18 05:50:40;;;;;;;25.00;9.75;;;-3.70;99.90;;;;;;5017895;28;20050;-71
2022/12/18 05:53:06;;;;;;;23.60;9.73;;;-3.70;99.90;;;;;;5014881;28;20038;-70
2022/12/18 05:55:36;;;;;;;23.27;9.60;;;-3.70;99.90;;;;;;5002838;28;20121;-69
2022/12/18 05:58:06;;;;;;;26.60;10.27;;;-3.70;99.90;;;;;;5018480;28;20102;-70
2022/12/18 06:00:34;;;;;;;21.40;8.48;;;-3.60;99.90;;;;;;5002692;28;20357;-70
2022/12/18 06:03:00;;;;;;;22.02;9.35;;;-3.60;99.90;;;;;;5019100;28;20057;-69
2022/12/18 06:05:26;;;;;;;20.48;7.93;;;-3.60;99.90;;;;;;5020547;28;20062;-70
2022/12/18 06:07:52;;;;;;;19.00;8.40;;;-3.60;99.90;;;;;;5018892;28;20063;-67
2022/12/18 06:10:17;;;;;;;24.65;9.52;;;-3.60;99.90;;;;;;5019461;28;20439;-69
2022/12/18 06:12:43;;;;;;;20.38;7.55;;;-3.70;99.90;;;;;;5020630;28;20095;-69
2022/12/18 06:15:09;;;;;;;22.38;8.07;;;-3.80;99.90;;;;;;5021613;28;20096;-69
2022/12/18 06:17:36;;;;;;;20.58;7.25;;;-3.80;99.90;;;;;;5017007;28;20038;-70
2022/12/18 06:20:02;;;;;;;16.95;6.38;;;-3.80;99.90;;;;;;5021326;28;20500;-69
2022/12/18 06:22:30;;;;;;;16.00;7.25;;;-3.80;99.90;;;;;;5017462;28;20091;-70
2022/12/18 06:24:55;;;;;;;19.08;7.65;;;-3.80;99.90;;;;;;5016576;28;20075;-70
2022/12/18 06:27:21;;;;;;;21.35;8.25;;;-3.80;99.90;;;;;;5016185;28;20066;-67
2022/12/18 06:29:47;;;;;;;18.27;6.57;;;-3.90;99.90;;;;;;5018831;28;20430;-69
2022/12/18 06:32:13;;;;;;;16.80;6.90;;;-3.80;99.90;;;;;;5018943;28;20049;-69
2022/12/18 06:34:38;;;;;;;15.10;6.25;;;-3.80;99.90;;;;;;5017374;28;20085;-69
2022/12/18 06:37:04;;;;;;;24.95;6.70;;;-3.80;99.90;;;;;;5021597;28;20029;-69
2022/12/18 06:39:30;;;;;;;17.88;7.95;;;-3.80;99.90;;;;;;5000065;28;20658;-69
2022/12/18 06:41:56;;;;;;;17.10;6.80;;;-3.80;99.90;;;;;;5001888;28;20450;-70
2022/12/18 06:44:21;;;;;;;18.88;7.20;;;-3.80;99.90;;;;;;5011024;28;20026;-70
2022/12/18 06:46:47;;;;;;;14.75;6.07;;;-3.80;99.90;;;;;;5012527;28;20060;-69
2022/12/18 06:49:13;;;;;;;14.68;6.90;;;-3.90;99.90;;;;;;5012431;28;20565;-69
2022/12/18 06:51:38;;;;;;;16.98;8.13;;;-3.80;99.90;;;;;;5012773;28;20106;-68
2022/12/18 06:54:04;;;;;;;19.75;7.63;;;-3.80;99.90;;;;;;5014427;28;20030;-70
2022/12/18 06:56:30;;;;;;;18.40;7.43;;;-3.80;99.90;;;;;;5011736;28;20030;-69
2022/12/18 06:58:56;;;;;;;16.92;6.55;;;-3.80;99.90;;;;;;5014106;28;20034;-70
2022/12/18 07:01:22;;;;;;;23.60;8.02;;;-3.80;99.90;;;;;;5015783;28;20041;-70
2022/12/18 07:03:53;;;;;;;19.13;6.90;;;-3.80;99.90;;;;;;4998975;28;20078;-69
2022/12/18 07:06:21;;;;;;;12.43;5.97;;;-3.70;99.90;;;;;;5019162;28;20049;-69
2022/12/18 07:08:47;;;;;;;14.93;6.20;;;-3.80;99.90;;;;;;5017748;28;20113;-70
2022/12/18 07:11:13;;;;;;;17.95;6.57;;;-3.70;99.90;;;;;;5018226;28;20034;-70
2022/12/18 07:13:39;;;;;;;21.27;7.50;;;-3.70;99.90;;;;;;5016514;28;20033;-70
2022/12/18 07:16:30;;;;;;;18.40;6.38;;;-3.80;99.90;;;;;;5016963;28;20482;-71
2022/12/18 07:18:56;;;;;;;14.02;5.95;;;-3.80;99.90;;;;;;5014910;28;20033;-70
2022/12/18 07:21:22;;;;;;;13.40;5.80;;;-3.80;99.90;;;;;;5019465;28;20046;-69
2022/12/18 07:23:48;;;;;;;19.30;7.38;;;-3.70;99.90;;;;;;5009324;28;20592;-70
2022/12/18 07:26:15;;;;;;;16.73;6.20;;;-3.80;99.90;;;;;;5011052;28;20057;-70
2022/12/18 07:28:41;;;;;;;14.98;6.13;;;-3.70;99.90;;;;;;5014944;28;20759;-69
2022/12/18 07:31:12;;;;;;;15.55;6.05;;;-3.70;99.90;;;;;;5017811;28;20029;-69
2022/12/18 07:33:38;;;;;;;17.88;6.68;;;-3.70;99.90;;;;;;5014478;28;20026;-68
2022/12/18 07:36:06;;;;;;;18.00;7.38;;;-3.70;99.90;;;;;;5019032;28;20030;-67
2022/12/18 07:38:33;;;;;;;15.77;5.88;;;-3.70;99.90;;;;;;5014458;28;20033;-68
2022/12/18 07:41:03;;;;;;;17.98;6.13;;;-3.70;99.90;;;;;;5011250;28;20061;-66
2022/12/18 07:43:29;;;;;;;15.07;6.72;;;-3.70;99.90;;;;;;4996182;28;20037;-70
2022/12/18 07:45:55;;;;;;;17.13;6.18;;;-3.70;99.90;;;;;;5017027;28;20044;-69
2022/12/18 07:48:20;;;;;;;14.75;5.60;;;-3.70;99.90;;;;;;4998547;28;20490;-69
2022/12/18 07:50:46;;;;;;;16.10;6.28;;;-3.70;99.90;;;;;;5015812;28;20068;-69
2022/12/18 07:53:12;;;;;;;15.38;6.35;;;-3.70;99.90;;;;;;5017290;28;20033;-69
2022/12/18 07:55:37;;;;;;;14.77;6.15;;;-3.70;99.90;;;;;;5014721;28;20137;-69
2022/12/18 07:58:04;;;;;;;14.45;6.32;;;-3.70;99.90;;;;;;5018554;28;20095;-68
2022/12/18 08:00:30;;;;;;;15.57;6.40;;;-3.60;99.90;;;;;;5005231;28;20771;-69
2022/12/18 08:02:56;;;;;;;15.80;6.88;;;-3.60;99.90;;;;;;5015147;28;20052;-69
2022/12/18 08:05:22;;;;;;;14.77;5.82;;;-3.60;99.90;;;;;;5017444;28;20033;-68
2022/12/18 08:07:47;;;;;;;16.45;8.32;;;-3.60;99.90;;;;;;5012990;28;20083;-69
2022/12/18 08:10:13;;;;;;;14.10;5.88;;;-3.50;99.90;;;;;;5016392;28;20085;-68
2022/12/18 08:12:39;;;;;;;14.90;6.43;;;-3.50;99.90;;;;;;5007034;28;20770;-69
2022/12/18 08:15:06;;;;;;;13.90;6.72;;;-3.50;99.90;;;;;;5010366;28;20037;-69
2022/12/18 08:17:31;;;;;;;14.23;6.35;;;-3.40;99.90;;;;;;5016179;28;20091;-69
2022/12/18 08:19:57;;;;;;;15.35;6.65;;;-3.40;99.90;;;;;;5009085;28;20038;-69
2022/12/18 08:22:23;;;;;;;19.30;7.32;;;-3.40;99.90;;;;;;5014239;28;20034;-69
2022/12/18 08:24:48;;;;;;;18.48;6.47;;;-3.40;99.90;;;;;;5018146;28;20055;-69
2022/12/18 08:27:14;;;;;;;14.80;6.45;;;-3.30;99.90;;;;;;4998918;28;20048;-69
2022/12/18 08:29:39;;;;;;;14.68;6.75;;;-3.30;99.90;;;;;;5010697;28;20037;-68
2022/12/18 08:32:05;;;;;;;19.63;6.78;;;-3.30;99.90;;;;;;5017655;28;20482;-70
2022/12/18 08:34:30;;;;;;;16.95;6.03;;;-3.30;99.90;;;;;;4997201;28;20046;-69
2022/12/18 08:36:56;;;;;;;15.98;6.90;;;-3.30;99.90;;;;;;5017081;28;20501;-69
2022/12/18 08:39:22;;;;;;;16.88;6.15;;;-3.30;99.90;;;;;;5014265;28;20137;-68
2022/12/18 08:44:37;;;;;;;12.25;5.45;;;-3.20;99.90;;;;;;5014617;28;20033;-69
2022/12/18 08:44:39;;;;;;;17.48;7.20;;;-3.20;99.90;;;;;;5009526;28;20037;-70
2022/12/18 08:47:07;;;;;;;14.85;6.65;;;-3.20;99.90;;;;;;5009023;28;20129;-69
2022/12/18 08:49:34;;;;;;;13.32;5.75;;;-3.10;99.90;;;;;;5015295;28;20034;-69
2022/12/18 08:52:02;;;;;;;15.70;6.63;;;-3.10;99.90;;;;;;5014647;28;20030;-69
2022/12/18 08:54:28;;;;;;;18.35;5.72;;;-3.00;99.90;;;;;;5004583;28;20048;-71
2022/12/18 08:56:53;;;;;;;15.98;6.32;;;-3.00;99.90;;;;;;5005714;28;20037;-69
2022/12/18 08:59:20;;;;;;;15.43;6.03;;;-2.90;99.90;;;;;;5015460;28;20496;-70
2022/12/18 09:01:46;;;;;;;13.88;6.47;;;-2.90;99.90;;;;;;5017205;28;20038;-70
2022/12/18 09:04:13;;;;;;;13.75;5.53;;;-2.90;99.90;;;;;;5016518;28;20033;-69
2022/12/18 09:06:39;;;;;;;15.25;5.75;;;-2.90;99.90;;;;;;5013476;28;20030;-69
2022/12/18 09:09:05;;;;;;;18.15;7.82;;;-2.80;99.90;;;;;;5012193;28;20111;-70
2022/12/18 09:11:33;;;;;;;15.68;7.45;;;-2.80;99.90;;;;;;5015921;28;20070;-70
2022/12/18 09:14:01;;;;;;;13.65;5.63;;;-2.70;99.90;;;;;;5018304;28;20067;-71
2022/12/18 09:16:28;;;;;;;19.30;5.78;;;-2.60;99.90;;;;;;5015933;28;20045;-70
2022/12/18 09:19:01;;;;;;;17.23;6.47;;;-2.60;99.90;;;;;;5012534;28;20382;-70
2022/12/18 09:21:29;;;;;;;15.13;5.80;;;-2.60;99.90;;;;;;5015972;28;20091;-70
2022/12/18 09:23:55;;;;;;;14.55;6.80;;;-2.60;99.90;;;;;;5013674;28;20037;-69
2022/12/18 09:26:22;;;;;;;17.15;5.75;;;-2.60;99.90;;;;;;5011329;28;20034;-70
2022/12/18 09:28:48;;;;;;;16.10;6.50;;;-2.50;99.90;;;;;;5014387;28;20557;-70
2022/12/18 09:31:14;;;;;;;14.40;6.40;;;-2.50;99.90;;;;;;5020001;28;20049;-69
2022/12/18 09:33:40;;;;;;;13.73;6.03;;;-2.40;99.90;;;;;;5014027;28;20037;-70
2022/12/18 09:36:08;;;;;;;13.98;5.82;;;-2.40;99.90;;;;;;5020544;28;20101;-70
2022/12/18 09:38:34;;;;;;;13.65;6.38;;;-2.40;99.90;;;;;;5020542;28;20032;-71
2022/12/18 09:41:15;;;;;;;17.08;7.50;;;-2.40;99.90;;;;;;5020386;28;20387;-70
2022/12/18 09:43:49;;;;;;;16.00;6.53;;;-2.30;99.90;;;;;;5019460;28;20045;-69
2022/12/18 09:46:28;;;;;;;14.48;5.60;;;-2.20;99.90;;;;;;5021972;28;20041;-70
2022/12/18 09:48:59;;;;;;;15.57;6.28;;;-2.20;99.90;;;;;;5014583;28;20052;-68
2022/12/18 09:51:33;;;;;;;14.07;6.07;;;-2.20;99.90;;;;;;5011611;28;20192;-70
2022/12/18 09:54:11;;;;;;;14.02;5.35;;;-2.20;99.90;;;;;;5015091;28;20042;-69
2022/12/18 09:56:41;;;;;;;14.13;5.78;;;-2.20;99.90;;;;;;5020151;28;20029;-71
2022/12/18 09:59:22;;;;;;;13.48;6.13;;;-2.10;99.90;;;;;;5001379;28;20143;-69
2022/12/18 10:01:48;;;;;;;13.25;6.10;;;-2.10;99.90;;;;;;5015380;28;20029;-70
2022/12/18 10:04:13;;;;;;;18.05;6.00;;;-2.10;99.90;;;;;;5001981;28;20048;-71
2022/12/18 10:06:54;;;;;;;14.32;5.28;;;-2.10;99.90;;;;;;5016753;28;20395;-70
2022/12/18 10:09:38;;;;;;;;;;;-2.00;99.90;;;;;;5015929;28;20026;-70
2022/12/18 10:12:12;;;;;;;13.57;6.55;;;-2.00;99.90;;;;;;5015650;28;19913;-70
2022/12/18 10:14:50;;;;;;;15.48;5.97;;;-1.90;99.90;;;;;;5015090;28;20038;-70
2022/12/18 10:17:44;;;;;;;15.18;7.18;;;-2.00;99.90;;;;;;5020165;28;20042;-71
2022/12/18 10:20:15;;;;;;;18.55;6.60;;;-1.90;99.90;;;;;;5018136;28;20045;-69
2022/12/18 10:23:00;;;;;;;15.60;5.93;;;-1.90;99.90;;;;;;5020998;28;20036;-71
2022/12/18 10:25:46;;;;;;;15.07;5.97;;;-1.80;99.90;;;;;;5019214;28;20045;-70
2022/12/18 10:28:15;;;;;;;17.52;6.85;;;-1.80;99.90;;;;;;5029152;28;20037;-70
2022/12/18 10:30:42;;;;;;;18.73;6.47;;;-1.70;99.90;;;;;;5030318;28;20052;-70
2022/12/18 10:33:16;;;;;;;14.27;6.22;;;-1.80;99.90;;;;;;5035854;28;20038;-70
2022/12/18 10:35:43;;;;;;;13.00;5.20;;;-1.70;99.90;;;;;;5039284;28;20135;-71
2022/12/18 10:38:15;;;;;;;16.17;6.50;;;-1.70;99.90;;;;;;5037301;28;20036;-69
2022/12/18 10:40:56;;;;;;;15.48;6.82;;;-1.60;99.90;;;;;;5035149;28;20068;-70
2022/12/18 10:43:23;;;;;;;;;;;-1.60;99.90;;;;;;5018430;28;20045;-69
2022/12/18 10:46:01;;;;;;;14.52;6.60;;;-1.60;99.90;;;;;;5018837;28;20373;-70
2022/12/18 10:48:27;;;;;;;14.30;6.32;;;-1.60;99.90;;;;;;5020798;28;20041;-70
2022/12/18 10:50:53;;;;;;;16.45;7.07;;;-1.50;99.90;;;;;;5019009;28;20044;-69
2022/12/18 10:53:25;;;;;;;12.93;6.07;;;-1.50;99.90;;;;;;5022609;28;20029;-70
2022/12/18 10:55:53;;;;;;;17.90;6.93;;;-1.50;99.90;;;;;;5014857;28;20037;-69
2022/12/18 10:58:25;;;;;;;15.43;6.20;;;-1.40;99.90;;;;;;5015624;28;20544;-69
2022/12/18 11:01:13;;;;;;;17.83;5.78;;;-1.40;99.90;;;;;;5014420;28;20053;-70
2022/12/18 11:03:54;;;;;;;21.05;7.03;;;-1.30;99.90;;;;;;5017958;28;20080;-70
2022/12/18 11:06:23;;;;;;;13.70;6.28;;;-1.30;99.90;;;;;;4996256;28;20568;-69
2022/12/18 11:09:17;;;;;;;13.50;6.73;;;-1.30;99.90;;;;;;5011642;28;20046;-70
2022/12/18 11:11:53;;;;;;;15.00;5.88;;;-1.20;99.90;;;;;;5019034;28;20281;-70
2022/12/18 11:14:23;;;;;;;15.35;6.63;;;-1.20;99.90;;;;;;5014145;28;20041;-69
2022/12/18 11:16:51;;;;;;;15.07;6.57;;;-1.20;99.90;;;;;;5013267;28;20033;-69
2022/12/18 11:19:32;;;;;;;13.30;6.75;;;-1.10;99.90;;;;;;5014237;28;20406;-69
2022/12/18 11:21:59;;;;;;;12.50;5.53;;;-1.10;99.90;;;;;;5015144;28;20495;-69
2022/12/18 11:24:52;;;;;;;18.15;6.07;;;-1.10;99.90;;;;;;5020000;28;20061;-69
2022/12/18 11:27:18;;;;;;;16.10;5.63;;;-1.10;99.90;;;;;;5013823;28;20030;-69
2022/12/18 11:29:44;;;;;;;12.98;5.70;;;-1.00;99.90;;;;;;5016418;28;20029;-70
2022/12/18 11:32:28;;;;;;;13.73;5.68;;;-1.00;99.90;;;;;;5014678;28;20072;-70
2022/12/18 11:35:04;;;;;;;15.93;5.80;;;-1.00;99.90;;;;;;5012144;28;20125;-70
2022/12/18 11:37:31;;;;;;;13.35;5.97;;;-1.00;99.90;;;;;;5014150;28;20037;-70
2022/12/18 11:40:01;;;;;;;15.45;6.28;;;-0.90;99.90;;;;;;5018580;28;20029;-71
2022/12/18 11:42:37;;;;;;;11.70;5.25;;;-0.90;99.90;;;;;;5018879;28;20061;-68
2022/12/18 11:45:18;;;;;;;11.50;5.15;;;-0.90;99.90;;;;;;5017894;28;20506;-70
2022/12/18 11:47:52;;;;;;;10.82;5.38;;;-0.90;99.90;;;;;;5001463;28;20394;-70
2022/12/18 11:50:38;;;;;;;11.95;5.43;;;-0.80;99.90;;;;;;5013978;28;20034;-70
2022/12/18 11:53:03;;;;;;;12.05;5.57;;;-0.80;99.90;;;;;;4977803;28;20042;-71
2022/12/18 11:55:38;;;;;;;13.50;5.65;;;-0.80;99.90;;;;;;5017226;28;20038;-70
2022/12/18 11:58:24;;;;;;;16.45;6.50;;;-0.80;99.90;;;;;;5015089;28;20030;-70
2022/12/18 12:01:16;;;;;;;14.00;6.35;;;-0.80;99.90;;;;;;5012337;28;20131;-70
2022/12/18 12:04:06;;;;;;;15.48;6.45;;;-0.70;99.90;;;;;;5009129;28;20042;-71
2022/12/18 12:07:02;;;;;;;12.23;4.93;;;-0.80;99.90;;;;;;5009855;28;20046;-70
2022/12/18 12:09:55;;;;;;;14.50;5.22;;;-0.70;99.90;;;;;;5009626;28;20719;-71
2022/12/18 12:12:53;;;;;;;15.63;6.95;;;-0.70;99.90;;;;;;5008926;28;20069;-71
2022/12/18 12:15:37;;;;;;;12.13;5.72;;;-0.60;99.90;;;;;;5005031;28;20042;-71
2022/12/18 12:18:48;;;;;;;15.88;5.80;;;-0.60;99.90;;;;;;5010264;28;20085;-71
2022/12/18 12:21:28;;;;;;;15.35;6.15;;;-0.60;99.90;;;;;;4897037;29;20132;-71
2022/12/18 12:24:19;;;;;;;18.50;6.68;;;-0.50;99.90;;;;;;4900189;29;20067;-71
2022/12/18 12:26:52;;;;;;;11.38;5.80;;;-0.50;99.90;;;;;;4985686;28;20030;-71
2022/12/18 12:29:52;;;;;;;14.02;6.18;;;-0.50;99.90;;;;;;5011978;28;20044;-69
2022/12/18 12:32:44;;;;;;;15.32;6.00;;;-0.50;99.90;;;;;;5013098;28;20052;-68
2022/12/18 12:35:26;;;;;;;11.23;5.93;;;-0.50;99.90;;;;;;5015107;28;20392;-70
2022/12/18 12:38:05;;;;;;;14.32;5.97;;;-0.40;99.90;;;;;;5012142;28;20026;-70
2022/12/18 12:40:37;;;;;;;18.88;5.72;;;-0.40;99.90;;;;;;5018353;28;20051;-70
2022/12/18 12:43:26;;;;;;;12.85;5.30;;;-0.40;99.90;;;;;;5015746;28;20372;-70
2022/12/18 12:46:08;;;;;;;17.98;6.20;;;-0.40;99.90;;;;;;4991014;28;20050;-71
2022/12/18 12:48:37;;;;;;;13.77;5.97;;;-0.40;99.90;;;;;;5016271;28;20042;-70
2022/12/18 12:51:12;;;;;;;15.00;6.38;;;-0.40;99.90;;;;;;5016298;28;20061;-70
2022/12/18 12:53:39;;;;;;;13.13;5.93;;;-0.40;99.90;;;;;;5011657;28;20080;-71
2022/12/18 12:56:05;;;;;;;12.75;5.75;;;-0.30;99.90;;;;;;5020951;28;20375;-69